Time;durP1;ratioP1;P1;durP2;ratioP2;P2;SDS_P1;SDS_P2;PMS_P1;PMS_P2;Temp;Humidity;BMP_temperature;BMP_pressure;BME280_temperature;BME280_humidity;BME280_pressure;Samples;Min_cycle;Max_cycle;Signal;HPM_P1;HPM_P2
2023/04/15 00:00:03;;;;;;;21.52;9.65;;;6.00;99.90;;;;;;5064195;28;20076;-73
2023/04/15 00:02:30;;;;;;;18.90;8.60;;;5.90;99.90;;;;;;5063573;28;20066;-70
2023/04/15 00:04:55;;;;;;;18.05;9.60;;;5.90;99.90;;;;;;5046405;28;20048;-67
2023/04/15 00:07:21;;;;;;;19.65;8.90;;;5.80;99.90;;;;;;5088316;28;20515;-72
2023/04/15 00:09:46;;;;;;;23.45;9.48;;;5.80;99.90;;;;;;5046780;28;20090;-70
2023/04/15 00:12:12;;;;;;;27.90;9.80;;;5.70;99.90;;;;;;5047343;28;20079;-71
2023/04/15 00:14:38;;;;;;;18.85;8.98;;;5.70;99.90;;;;;;5052524;28;20123;-71
2023/04/15 00:17:04;;;;;;;19.20;9.43;;;5.70;99.90;;;;;;5048112;28;20613;-72
2023/04/15 00:19:31;;;;;;;20.52;10.02;;;5.70;99.90;;;;;;5048751;28;20056;-69
2023/04/15 00:21:57;;;;;;;20.20;9.85;;;5.60;99.90;;;;;;5048247;28;20449;-70
2023/04/15 00:24:23;;;;;;;21.45;10.40;;;5.60;99.90;;;;;;5047608;28;20052;-71
2023/04/15 00:26:49;;;;;;;18.58;9.43;;;5.60;99.90;;;;;;5067179;28;20044;-72
2023/04/15 00:29:17;;;;;;;22.20;10.07;;;5.60;99.90;;;;;;5053041;28;20487;-69
2023/04/15 00:31:43;;;;;;;20.33;10.05;;;5.60;99.90;;;;;;5066734;28;20045;-71
2023/04/15 00:34:09;;;;;;;24.17;9.60;;;5.60;99.90;;;;;;5051172;28;20716;-71
2023/04/15 00:36:35;;;;;;;19.90;9.80;;;5.60;99.90;;;;;;5071773;28;20047;-70
2023/04/15 00:39:02;;;;;;;20.13;9.35;;;5.60;99.90;;;;;;5087659;28;20479;-73
2023/04/15 00:41:27;;;;;;;18.98;9.77;;;5.60;99.90;;;;;;5070893;28;20043;-72
2023/04/15 00:43:53;;;;;;;20.30;9.98;;;5.60;99.90;;;;;;5087586;28;20044;-70
2023/04/15 00:46:20;;;;;;;25.48;10.40;;;5.60;99.90;;;;;;5069124;28;20051;-69
2023/04/15 00:48:46;;;;;;;21.25;9.98;;;5.60;99.90;;;;;;5051022;28;20044;-72
2023/04/15 00:51:15;;;;;;;22.30;10.60;;;5.60;99.90;;;;;;5050626;28;20044;-73
2023/04/15 00:53:40;;;;;;;22.20;10.10;;;5.60;99.90;;;;;;5067514;28;20032;-72
2023/04/15 00:56:06;;;;;;;21.17;11.40;;;5.60;99.90;;;;;;5050316;28;20032;-74
2023/04/15 00:58:32;;;;;;;22.88;11.57;;;5.50;99.90;;;;;;5066523;28;20093;-71
2023/04/15 01:00:59;;;;;;;25.95;11.40;;;5.50;99.90;;;;;;5083846;28;20049;-73
2023/04/15 01:03:24;;;;;;;21.67;11.20;;;5.50;99.90;;;;;;5084045;28;20063;-72
2023/04/15 01:05:57;;;;;;;22.75;10.45;;;5.40;99.90;;;;;;5049907;28;20044;-71
2023/04/15 01:08:31;;;;;;;21.15;11.18;;;5.40;99.90;;;;;;5084949;28;20048;-72
2023/04/15 01:11:01;;;;;;;26.52;11.48;;;5.30;99.90;;;;;;5079845;28;20051;-72
2023/04/15 01:13:26;;;;;;;24.52;11.70;;;5.30;99.90;;;;;;5066205;28;20086;-73
2023/04/15 01:15:52;;;;;;;24.58;11.20;;;5.30;99.90;;;;;;5066162;28;20125;-70
2023/04/15 01:18:19;;;;;;;23.35;10.75;;;5.30;99.90;;;;;;5066019;28;20039;-70
2023/04/15 01:20:45;;;;;;;27.70;11.63;;;5.20;99.90;;;;;;5066163;28;20048;-71
2023/04/15 01:23:12;;;;;;;27.35;11.75;;;5.10;99.90;;;;;;5066033;28;20040;-72
2023/04/15 01:25:38;;;;;;;24.45;11.43;;;5.10;99.90;;;;;;5066257;28;20047;-71
2023/04/15 01:28:04;;;;;;;23.95;11.02;;;5.10;99.90;;;;;;5065871;28;20198;-73
2023/04/15 01:30:34;;;;;;;21.48;12.05;;;5.10;99.90;;;;;;5082878;28;20045;-71
2023/04/15 01:33:00;;;;;;;25.60;11.93;;;5.10;99.90;;;;;;5050056;28;20071;-74
2023/04/15 01:35:26;;;;;;;22.63;11.27;;;5.00;99.90;;;;;;5083780;28;20044;-71
2023/04/15 01:37:53;;;;;;;23.73;11.98;;;5.00;99.90;;;;;;5065361;28;20036;-71
2023/04/15 01:40:20;;;;;;;25.13;11.77;;;5.00;99.90;;;;;;5083732;28;20043;-73
2023/04/15 01:42:46;;;;;;;26.80;12.38;;;5.00;99.90;;;;;;5086216;28;20128;-71
2023/04/15 01:45:12;;;;;;;27.23;11.95;;;5.00;99.90;;;;;;5058053;28;20091;-71
2023/04/15 01:47:38;;;;;;;26.80;11.98;;;5.00;99.90;;;;;;5066407;28;20037;-72
2023/04/15 01:50:05;;;;;;;25.98;12.05;;;5.00;99.90;;;;;;5066389;28;20047;-72
2023/04/15 01:52:31;;;;;;;23.60;12.65;;;5.00;99.90;;;;;;5073609;28;20080;-74
2023/04/15 01:54:57;;;;;;;23.88;12.20;;;5.00;99.90;;;;;;5065935;28;20137;-72
2023/04/15 01:57:23;;;;;;;21.70;11.77;;;5.00;99.90;;;;;;5086302;28;20434;-72
2023/04/15 01:59:48;;;;;;;24.08;12.93;;;5.00;99.90;;;;;;5082717;28;20028;-73
2023/04/15 02:02:15;;;;;;;22.00;12.48;;;5.00;99.90;;;;;;5049804;28;20056;-73
2023/04/15 02:04:40;;;;;;;28.60;12.48;;;5.00;99.90;;;;;;5053994;28;20256;-74
2023/04/15 02:07:06;;;;;;;23.88;13.10;;;5.00;99.90;;;;;;5051944;28;20354;-71
2023/04/15 02:09:32;;;;;;;25.60;11.80;;;5.00;99.90;;;;;;5085413;28;20044;-73
2023/04/15 02:11:58;;;;;;;23.75;12.55;;;5.00;99.90;;;;;;5068693;28;20513;-72
2023/04/15 02:14:24;;;;;;;25.85;12.68;;;5.10;99.90;;;;;;5059909;28;20040;-70
2023/04/15 02:16:49;;;;;;;23.73;13.55;;;5.10;99.90;;;;;;5066007;28;20041;-70
2023/04/15 02:19:15;;;;;;;23.75;12.93;;;5.10;99.90;;;;;;5066515;28;20086;-69
2023/04/15 02:21:41;;;;;;;27.45;12.60;;;5.10;99.90;;;;;;5070505;28;20050;-71
2023/04/15 02:24:07;;;;;;;25.50;13.40;;;5.00;99.90;;;;;;5086664;28;20043;-73
2023/04/15 02:26:32;;;;;;;28.17;13.07;;;5.00;99.90;;;;;;5069080;28;20047;-72
2023/04/15 02:28:58;;;;;;;23.27;12.43;;;5.00;99.90;;;;;;5080101;28;20048;-70
2023/04/15 02:31:25;;;;;;;25.88;13.27;;;5.10;99.90;;;;;;5048083;28;20043;-71
2023/04/15 02:33:51;;;;;;;29.35;14.50;;;5.00;99.90;;;;;;5048430;28;20051;-71
2023/04/15 02:36:16;;;;;;;26.73;13.45;;;5.00;99.90;;;;;;5072381;28;20028;-70
2023/04/15 02:38:42;;;;;;;25.08;14.40;;;5.00;99.90;;;;;;5065608;28;20040;-70
2023/04/15 02:41:09;;;;;;;27.05;15.82;;;5.00;99.90;;;;;;5065114;28;20147;-72
2023/04/15 02:43:35;;;;;;;28.35;16.25;;;5.00;99.90;;;;;;5048853;28;20063;-70
2023/04/15 02:46:00;;;;;;;27.35;15.07;;;5.00;99.90;;;;;;5061799;28;20040;-73
2023/04/15 02:48:26;;;;;;;28.65;15.13;;;5.00;99.90;;;;;;5085286;28;20039;-71
2023/04/15 02:50:52;;;;;;;29.02;14.80;;;5.00;99.90;;;;;;5061513;28;20041;-71
2023/04/15 02:53:18;;;;;;;27.40;15.13;;;5.00;99.90;;;;;;5068831;28;20047;-72
2023/04/15 02:55:45;;;;;;;30.90;14.60;;;5.00;99.90;;;;;;5065277;28;20032;-70
2023/04/15 02:58:10;;;;;;;30.55;15.38;;;5.00;99.90;;;;;;5064753;28;20248;-71
2023/04/15 03:00:36;;;;;;;28.27;15.85;;;5.00;99.90;;;;;;5048943;28;20032;-72
2023/04/15 03:03:03;;;;;;;28.55;15.98;;;5.00;99.90;;;;;;5064387;28;20109;-73
2023/04/15 03:05:29;;;;;;;29.77;16.17;;;5.00;99.90;;;;;;5067541;28;20039;-70
2023/04/15 03:07:55;;;;;;;34.80;18.50;;;5.00;99.90;;;;;;5070000;28;20036;-73
2023/04/15 03:10:21;;;;;;;32.72;17.02;;;5.00;99.90;;;;;;5081089;28;20032;-72
2023/04/15 03:12:47;;;;;;;31.15;17.05;;;5.00;99.90;;;;;;5085806;28;20032;-73
2023/04/15 03:15:13;;;;;;;34.83;16.85;;;5.00;99.90;;;;;;5063434;28;20054;-71
2023/04/15 03:17:38;;;;;;;33.63;16.67;;;5.00;99.90;;;;;;5085396;28;20051;-75
2023/04/15 03:20:05;;;;;;;30.30;17.25;;;5.00;99.90;;;;;;5084482;28;20607;-72
2023/04/15 03:22:31;;;;;;;34.88;17.35;;;5.00;99.90;;;;;;5056093;28;20040;-70
2023/04/15 03:24:57;;;;;;;33.90;17.85;;;5.10;99.90;;;;;;5064792;28;20052;-73
2023/04/15 03:27:24;;;;;;;39.45;18.63;;;5.10;99.90;;;;;;5082167;28;20048;-71
2023/04/15 03:29:50;;;;;;;32.65;17.88;;;5.10;99.90;;;;;;5064953;28;20131;-74
2023/04/15 03:32:16;;;;;;;33.15;17.50;;;5.10;99.90;;;;;;5047742;28;20053;-74
2023/04/15 03:34:42;;;;;;;33.50;18.38;;;5.10;99.90;;;;;;5065798;28;20043;-74
2023/04/15 03:37:08;;;;;;;36.47;18.67;;;5.10;99.90;;;;;;5047376;28;20040;-72
2023/04/15 03:39:34;;;;;;;32.67;18.38;;;5.00;99.90;;;;;;5064095;28;20538;-72
2023/04/15 03:42:00;;;;;;;35.28;18.77;;;5.00;99.90;;;;;;5064292;28;20250;-73
2023/04/15 03:44:27;;;;;;;33.67;18.10;;;5.00;99.90;;;;;;5064741;28;20165;-73
2023/04/15 03:46:53;;;;;;;36.15;18.42;;;5.00;99.90;;;;;;5065104;28;20525;-74
2023/04/15 03:49:21;;;;;;;37.78;19.45;;;4.90;99.90;;;;;;5049155;28;20052;-73
2023/04/15 03:51:47;;;;;;;35.92;19.27;;;4.90;99.90;;;;;;5065450;28;20478;-73
2023/04/15 03:54:14;;;;;;;34.13;18.55;;;4.80;99.90;;;;;;5065852;28;20254;-70
2023/04/15 03:56:40;;;;;;;38.38;20.13;;;4.80;99.90;;;;;;5064857;28;20124;-71
2023/04/15 03:59:05;;;;;;;37.80;19.23;;;4.80;99.90;;;;;;5064386;28;20041;-72
2023/04/15 04:01:31;;;;;;;35.63;18.73;;;4.70;99.90;;;;;;5070136;28;20063;-73
2023/04/15 04:03:57;;;;;;;35.97;19.15;;;4.60;99.90;;;;;;5053034;28;20499;-72
2023/04/15 04:06:23;;;;;;;39.63;19.83;;;4.60;99.90;;;;;;5085031;28;20044;-72
2023/04/15 04:08:49;;;;;;;42.28;19.92;;;4.60;99.90;;;;;;5069727;28;20158;-74
2023/04/15 04:11:15;;;;;;;42.30;21.15;;;4.50;99.90;;;;;;5068599;28;20495;-71
2023/04/15 04:13:40;;;;;;;44.63;21.35;;;4.50;99.90;;;;;;5051900;28;20048;-71
2023/04/15 04:16:07;;;;;;;47.40;21.25;;;4.50;99.90;;;;;;5067698;28;20040;-71
2023/04/15 04:18:32;;;;;;;39.85;21.17;;;4.50;99.90;;;;;;5068157;28;20047;-72
2023/04/15 04:20:58;;;;;;;43.47;21.38;;;4.50;99.90;;;;;;5068100;28;20101;-73
2023/04/15 04:23:24;;;;;;;39.92;20.05;;;4.50;99.90;;;;;;5050763;28;20474;-73
2023/04/15 04:25:51;;;;;;;44.33;21.25;;;4.50;99.90;;;;;;5068332;28;20491;-72
2023/04/15 04:28:17;;;;;;;39.85;20.25;;;4.50;99.90;;;;;;5067871;28;20055;-72
2023/04/15 04:30:43;;;;;;;43.33;21.05;;;4.50;99.90;;;;;;5068213;28;20045;-72
2023/04/15 04:33:09;;;;;;;45.70;21.55;;;4.50;99.90;;;;;;5067786;28;20123;-71
2023/04/15 04:35:36;;;;;;;40.50;20.77;;;4.50;99.90;;;;;;5067840;28;20042;-74
2023/04/15 04:38:03;;;;;;;44.30;21.60;;;4.50;99.90;;;;;;5051178;28;20037;-71
2023/04/15 04:40:28;;;;;;;52.47;22.42;;;4.50;99.90;;;;;;5067537;28;20094;-70
2023/04/15 04:42:54;;;;;;;45.15;22.48;;;4.40;99.90;;;;;;5050642;28;20339;-71
2023/04/15 04:45:20;;;;;;;49.15;23.75;;;4.50;99.90;;;;;;5050841;28;20643;-70
2023/04/15 04:47:46;;;;;;;51.92;24.25;;;4.40;99.90;;;;;;5067385;28;20050;-71
2023/04/15 04:50:12;;;;;;;52.95;23.77;;;4.40;99.90;;;;;;5067720;28;20178;-69
2023/04/15 04:52:38;;;;;;;48.28;22.58;;;4.40;99.90;;;;;;5050652;28;20537;-73
2023/04/15 04:55:05;;;;;;;48.55;23.45;;;4.40;99.90;;;;;;5067473;28;20493;-75
2023/04/15 04:57:31;;;;;;;54.97;25.75;;;4.40;99.90;;;;;;5067804;28;20396;-74
2023/04/15 04:59:56;;;;;;;51.92;23.38;;;4.50;99.90;;;;;;5088433;28;20046;-70
2023/04/15 05:02:22;;;;;;;52.15;24.85;;;4.50;99.90;;;;;;5088073;28;20510;-70
2023/04/15 05:04:49;;;;;;;47.63;22.83;;;4.50;99.90;;;;;;5088621;28;20523;-73
2023/04/15 05:07:15;;;;;;;53.92;23.98;;;4.60;99.90;;;;;;5068822;28;20036;-69
2023/04/15 05:09:41;;;;;;;47.35;22.20;;;4.60;99.90;;;;;;5070799;28;20071;-71
2023/04/15 05:12:08;;;;;;;46.88;23.20;;;4.70;99.90;;;;;;5086824;28;20337;-73
2023/04/15 05:14:34;;;;;;;41.25;21.20;;;4.70;99.90;;;;;;5080899;28;20040;-71
2023/04/15 05:16:59;;;;;;;43.20;22.42;;;4.80;99.90;;;;;;5049993;28;20114;-73
2023/04/15 05:19:25;;;;;;;47.72;21.90;;;4.80;99.90;;;;;;5050159;28;20088;-69
2023/04/15 05:21:51;;;;;;;41.47;21.10;;;4.90;99.90;;;;;;5070769;28;20089;-73
2023/04/15 05:24:17;;;;;;;49.85;23.13;;;5.00;99.90;;;;;;5069931;28;20480;-70
2023/04/15 05:26:43;;;;;;;45.20;22.17;;;5.20;99.90;;;;;;5087107;28;20094;-72
2023/04/15 05:29:08;;;;;;;40.38;22.20;;;5.40;99.90;;;;;;5061387;28;20040;-72
2023/04/15 05:31:34;;;;;;;41.78;20.85;;;5.50;99.90;;;;;;5049351;28;20041;-73
2023/04/15 05:34:00;;;;;;;40.05;20.40;;;5.70;99.90;;;;;;5049677;28;20122;-70
2023/04/15 05:36:26;;;;;;;34.55;20.27;;;5.80;99.90;;;;;;5048939;28;20079;-73
2023/04/15 05:38:53;;;;;;;36.47;19.83;;;5.90;99.90;;;;;;5065876;28;20071;-68
2023/04/15 05:41:18;;;;;;;35.05;19.73;;;6.10;99.90;;;;;;5049599;28;20495;-70
2023/04/15 05:43:44;;;;;;;37.70;19.70;;;6.30;99.90;;;;;;5066064;28;20067;-71
2023/04/15 05:46:10;;;;;;;36.72;18.08;;;6.50;99.90;;;;;;5049387;28;20408;-73
2023/04/15 05:48:36;;;;;;;32.28;17.63;;;6.60;99.90;;;;;;5078548;28;20123;-72
2023/04/15 05:51:01;;;;;;;33.20;18.02;;;6.70;99.90;;;;;;5067935;28;20051;-72
2023/04/15 05:53:27;;;;;;;32.22;17.77;;;6.80;99.90;;;;;;5050039;28;20032;-71
2023/04/15 05:55:53;;;;;;;31.45;17.45;;;6.90;99.90;;;;;;5068888;28;20036;-73
2023/04/15 05:58:19;;;;;;;27.58;16.33;;;6.90;99.90;;;;;;5084648;28;20410;-72
2023/04/15 06:00:45;;;;;;;29.90;16.98;;;6.90;99.90;;;;;;5056487;28;20086;-73
2023/04/15 06:03:11;;;;;;;28.83;16.65;;;6.90;99.90;;;;;;5091794;28;20044;-71
2023/04/15 06:05:37;;;;;;;26.58;16.00;;;7.00;99.90;;;;;;5083618;28;20049;-69
2023/04/15 06:08:03;;;;;;;26.30;15.23;;;7.00;99.90;;;;;;5068531;28;20051;-73
2023/04/15 06:10:29;;;;;;;30.17;15.88;;;7.00;99.90;;;;;;5068877;28;20036;-72
2023/04/15 06:12:55;;;;;;;25.08;14.82;;;7.10;99.90;;;;;;5084004;28;20031;-72
2023/04/15 06:15:21;;;;;;;26.95;15.52;;;7.20;99.90;;;;;;5064501;28;20093;-71
2023/04/15 06:17:47;;;;;;;25.27;14.95;;;7.30;99.90;;;;;;5065723;28;20037;-73
2023/04/15 06:20:13;;;;;;;24.30;14.43;;;7.40;99.90;;;;;;5065834;28;20035;-73
2023/04/15 06:22:39;;;;;;;24.70;14.63;;;7.50;99.90;;;;;;5048126;28;20037;-73
2023/04/15 06:25:06;;;;;;;23.60;14.13;;;7.60;99.90;;;;;;5066199;28;20098;-69
2023/04/15 06:27:32;;;;;;;23.30;13.73;;;7.60;99.90;;;;;;5065656;28;20079;-71
2023/04/15 06:29:58;;;;;;;24.48;13.68;;;7.60;99.90;;;;;;5082244;28;20516;-74
2023/04/15 06:32:24;;;;;;;23.33;13.90;;;7.70;99.90;;;;;;5065080;28;20044;-71
2023/04/15 06:34:50;;;;;;;26.92;14.35;;;7.70;99.90;;;;;;5048675;28;20442;-69
2023/04/15 06:37:15;;;;;;;26.02;13.82;;;7.70;99.90;;;;;;5075917;28;20131;-71
2023/04/15 06:39:43;;;;;;;24.30;13.48;;;7.70;99.90;;;;;;5068183;28;20063;-73
2023/04/15 06:42:09;;;;;;;22.90;12.77;;;7.70;99.90;;;;;;5084715;28;20441;-70
2023/04/15 06:44:36;;;;;;;23.90;13.20;;;7.70;99.90;;;;;;5084274;28;20044;-69
2023/04/15 06:47:02;;;;;;;21.48;12.93;;;7.70;99.90;;;;;;5065097;28;20045;-67
2023/04/15 06:49:28;;;;;;;20.73;12.73;;;7.70;99.90;;;;;;5064607;28;20131;-72
2023/04/15 06:51:53;;;;;;;21.92;12.15;;;7.80;99.90;;;;;;5065027;28;20634;-70
2023/04/15 06:54:19;;;;;;;24.60;12.38;;;7.90;99.90;;;;;;5064613;28;20036;-72
2023/04/15 06:56:46;;;;;;;21.42;12.20;;;7.90;99.90;;;;;;5064544;28;20044;-71
2023/04/15 06:59:13;;;;;;;25.20;12.02;;;7.90;99.90;;;;;;5047950;28;20090;-69
2023/04/15 07:01:40;;;;;;;24.27;13.07;;;7.90;99.90;;;;;;5064422;28;20462;-66
2023/04/15 07:04:06;;;;;;;24.42;12.55;;;8.00;99.90;;;;;;5069875;28;20040;-67
2023/04/15 07:06:32;;;;;;;21.50;12.43;;;8.10;99.90;;;;;;5064729;28;20051;-70
2023/04/15 07:08:59;;;;;;;22.75;11.90;;;8.10;99.90;;;;;;5048177;28;20480;-68
2023/04/15 07:11:28;;;;;;;23.27;11.80;;;8.20;99.90;;;;;;5081406;28;20044;-69
2023/04/15 07:13:53;;;;;;;19.15;11.90;;;8.40;99.90;;;;;;5084095;28;20503;-67
2023/04/15 07:16:20;;;;;;;18.48;11.27;;;8.50;99.90;;;;;;5062165;28;20039;-69
2023/04/15 07:18:46;;;;;;;20.27;11.60;;;8.60;99.90;;;;;;5067624;28;20801;-67
2023/04/15 07:21:11;;;;;;;22.90;11.70;;;8.60;99.90;;;;;;5066002;28;20039;-68
2023/04/15 07:23:37;;;;;;;23.27;11.85;;;8.70;99.90;;;;;;5080851;28;20084;-69
2023/04/15 07:26:03;;;;;;;21.08;11.77;;;8.80;99.90;;;;;;5084224;28;20043;-67
2023/04/15 07:28:29;;;;;;;19.05;10.98;;;8.80;99.90;;;;;;5081075;28;20044;-68
2023/04/15 07:30:56;;;;;;;21.20;10.93;;;8.80;99.90;;;;;;5083601;28;20078;-66
2023/04/15 07:33:22;;;;;;;24.00;11.80;;;8.80;99.90;;;;;;5066733;28;20082;-69
2023/04/15 07:35:48;;;;;;;17.50;10.35;;;8.90;99.90;;;;;;5065487;28;20492;-69
2023/04/15 07:38:14;;;;;;;22.02;10.50;;;8.90;99.90;;;;;;5065388;28;20094;-68
2023/04/15 07:40:41;;;;;;;15.40;9.20;;;9.00;99.90;;;;;;5067396;28;20461;-69
2023/04/15 07:43:07;;;;;;;19.75;9.02;;;8.90;99.90;;;;;;5065096;28;20399;-69
2023/04/15 07:45:34;;;;;;;19.90;9.63;;;8.90;99.90;;;;;;5079794;28;20043;-69
2023/04/15 07:48:01;;;;;;;17.05;8.23;;;8.80;99.90;;;;;;5067157;28;20384;-67
2023/04/15 07:50:27;;;;;;;14.43;8.82;;;8.80;99.90;;;;;;5061299;28;20518;-68
2023/04/15 07:52:53;;;;;;;19.38;9.00;;;8.80;99.90;;;;;;5080878;28;20048;-68
2023/04/15 07:55:21;;;;;;;16.98;8.27;;;8.70;99.90;;;;;;5066363;28;20047;-71
2023/04/15 07:57:48;;;;;;;12.38;6.72;;;8.70;99.90;;;;;;5079468;28;20044;-68
2023/04/15 08:00:15;;;;;;;13.75;7.38;;;8.80;99.90;;;;;;5065759;28;20054;-70
2023/04/15 08:02:41;;;;;;;14.10;6.80;;;8.90;99.90;;;;;;5083702;28;20064;-68
2023/04/15 08:05:08;;;;;;;12.77;6.30;;;9.00;99.90;;;;;;5067133;28;20048;-68
2023/04/15 08:07:35;;;;;;;11.85;6.70;;;9.00;99.90;;;;;;5065619;28;20123;-69
2023/04/15 08:10:01;;;;;;;17.67;7.35;;;9.00;99.90;;;;;;5067473;28;20181;-71
2023/04/15 08:12:27;;;;;;;16.75;7.65;;;9.10;99.90;;;;;;5068071;28;20156;-67
2023/04/15 08:14:55;;;;;;;16.33;7.38;;;9.00;99.90;;;;;;5046422;28;20044;-69
2023/04/15 08:17:20;;;;;;;13.10;6.93;;;9.10;99.90;;;;;;5056458;28;20032;-68
2023/04/15 08:19:47;;;;;;;15.50;6.53;;;9.00;99.90;;;;;;5083509;28;20036;-67
2023/04/15 08:22:13;;;;;;;15.48;6.32;;;9.00;99.90;;;;;;5080389;28;20036;-70
2023/04/15 08:24:39;;;;;;;16.63;6.15;;;9.00;99.90;;;;;;5066155;28;20562;-68
2023/04/15 08:27:06;;;;;;;11.50;5.65;;;8.90;99.90;;;;;;5065693;28;20044;-69
2023/04/15 08:29:32;;;;;;;12.07;5.10;;;8.90;99.90;;;;;;5083180;28;20039;-69
2023/04/15 08:32:01;;;;;;;10.90;5.78;;;8.90;99.90;;;;;;5062024;28;20044;-68
2023/04/15 08:34:28;;;;;;;11.82;5.43;;;8.90;99.90;;;;;;5062784;28;20040;-67
2023/04/15 08:36:54;;;;;;;10.95;5.90;;;8.80;99.90;;;;;;5056220;28;20656;-69
2023/04/15 08:39:20;;;;;;;13.00;6.15;;;8.80;99.90;;;;;;5057541;28;20197;-66
2023/04/15 08:41:50;;;;;;;10.13;5.70;;;8.70;99.90;;;;;;5046155;28;20173;-69
2023/04/15 08:44:17;;;;;;;14.75;5.32;;;8.60;99.90;;;;;;5083242;28;20246;-69
2023/04/15 08:46:43;;;;;;;13.57;5.38;;;8.60;99.90;;;;;;5066271;28;20102;-70
2023/04/15 08:49:12;;;;;;;17.20;5.45;;;8.60;99.90;;;;;;5050221;28;20038;-68
2023/04/15 08:51:39;;;;;;;10.95;4.82;;;8.50;99.90;;;;;;5067094;28;20154;-65
2023/04/15 08:54:07;;;;;;;14.07;5.03;;;8.50;99.90;;;;;;5066874;28;20335;-67
2023/04/15 08:56:34;;;;;;;12.38;4.63;;;8.50;99.90;;;;;;5066503;28;20051;-67
2023/04/15 08:59:01;;;;;;;9.60;4.30;;;8.50;99.90;;;;;;5066856;28;20044;-68
2023/04/15 09:01:27;;;;;;;8.27;3.72;;;8.60;99.90;;;;;;5050118;28;20538;-69
2023/04/15 09:04:01;;;;;;;6.57;3.58;;;8.60;99.90;;;;;;5050795;28;20135;-68
2023/04/15 09:06:27;;;;;;;7.90;3.25;;;8.80;99.90;;;;;;5066038;28;20550;-68
2023/04/15 09:08:54;;;;;;;7.05;3.15;;;9.00;99.90;;;;;;5069916;28;20044;-70
2023/04/15 09:11:21;;;;;;;6.82;2.67;;;9.40;99.90;;;;;;5085948;28;20052;-68
2023/04/15 09:13:48;;;;;;;6.85;2.53;;;9.60;99.90;;;;;;5083565;28;20503;-68
2023/04/15 09:16:14;;;;;;;5.60;2.63;;;9.80;99.90;;;;;;5066646;28;20056;-70
2023/04/15 09:18:40;;;;;;;5.03;2.15;;;9.80;99.90;;;;;;5066484;28;20495;-69
2023/04/15 09:21:16;;;;;;;6.80;2.38;;;9.70;99.90;;;;;;5067901;28;20063;-71
2023/04/15 09:24:00;;;;;;;7.75;2.47;;;9.70;99.90;;;;;;5066602;28;20527;-73
2023/04/15 09:26:34;;;;;;;5.13;2.22;;;9.50;99.90;;;;;;5049838;28;20488;-68
2023/04/15 09:29:12;;;;;;;7.55;2.60;;;9.50;99.90;;;;;;5066289;28;20521;-68
2023/04/15 09:31:38;;;;;;;6.38;2.40;;;9.60;99.90;;;;;;5048978;28;20319;-70
2023/04/15 09:34:05;;;;;;;6.20;2.60;;;9.50;99.90;;;;;;5066241;28;20036;-68
2023/04/15 09:36:50;;;;;;;6.72;2.60;;;9.50;99.90;;;;;;5049575;28;20044;-69
2023/04/15 09:39:16;;;;;;;6.32;2.70;;;9.50;99.90;;;;;;5077692;28;20575;-72
2023/04/15 09:41:45;;;;;;;6.93;2.75;;;9.50;99.90;;;;;;5052707;28;20036;-67
2023/04/15 09:44:25;;;;;;;6.78;2.75;;;9.50;99.90;;;;;;5069316;28;20475;-69
2023/04/15 09:46:51;;;;;;;6.15;2.83;;;9.50;99.90;;;;;;5067648;28;20040;-67
2023/04/15 09:49:17;;;;;;;8.45;2.45;;;9.50;99.90;;;;;;5049711;28;20488;-68
2023/04/15 09:51:43;;;;;;;6.15;2.55;;;9.50;99.90;;;;;;5049040;28;20047;-70
2023/04/15 09:54:09;;;;;;;8.73;2.97;;;9.60;99.90;;;;;;5049211;28;20510;-69
2023/04/15 09:56:37;;;;;;;7.53;2.92;;;9.60;99.90;;;;;;5048761;28;20066;-69
2023/04/15 09:59:07;;;;;;;5.82;2.65;;;9.60;99.90;;;;;;5047857;28;20505;-69
2023/04/15 10:01:34;;;;;;;7.75;2.63;;;9.60;99.90;;;;;;5063710;28;20083;-68
2023/04/15 10:04:07;;;;;;;7.95;2.58;;;9.60;99.90;;;;;;5068817;28;20441;-68
2023/04/15 10:06:34;;;;;;;7.10;2.80;;;9.60;99.90;;;;;;5056262;28;20044;-73
2023/04/15 10:09:00;;;;;;;7.63;2.40;;;9.60;99.90;;;;;;5085986;28;20046;-69
2023/04/15 10:11:31;;;;;;;6.47;2.67;;;9.50;99.90;;;;;;5056738;28;20044;-68
2023/04/15 10:13:57;;;;;;;8.77;2.97;;;9.50;99.90;;;;;;5048360;28;20036;-69
2023/04/15 10:16:29;;;;;;;7.15;2.35;;;9.40;99.90;;;;;;5048303;28;20036;-66
2023/04/15 10:18:57;;;;;;;6.68;2.58;;;9.30;99.90;;;;;;5065774;28;20037;-66
2023/04/15 10:21:23;;;;;;;8.70;2.80;;;9.30;99.90;;;;;;5064696;28;20143;-67
2023/04/15 10:23:50;;;;;;;6.07;2.90;;;9.30;99.90;;;;;;5049061;28;20068;-70
2023/04/15 10:26:16;;;;;;;9.00;2.72;;;9.40;99.90;;;;;;5065222;28;20052;-68
2023/04/15 10:28:47;;;;;;;8.43;2.35;;;9.40;99.90;;;;;;5048319;28;20178;-67
2023/04/15 10:31:13;;;;;;;8.63;2.33;;;9.40;99.90;;;;;;5048576;28;20052;-67
2023/04/15 10:33:42;;;;;;;6.15;1.98;;;9.40;99.90;;;;;;5064729;28;20083;-68
2023/04/15 10:36:08;;;;;;;7.10;2.35;;;9.50;99.90;;;;;;5048139;28;20399;-69
2023/04/15 10:38:38;;;;;;;8.57;2.85;;;9.50;99.90;;;;;;5081580;28;20464;-68
2023/04/15 10:41:24;;;;;;;6.60;2.47;;;9.60;99.90;;;;;;5048326;28;20403;-68
2023/04/15 10:44:00;;;;;;;8.00;2.60;;;9.60;99.90;;;;;;5048314;28;20516;-66
2023/04/15 10:46:41;;;;;;;6.75;2.63;;;9.70;99.90;;;;;;5065808;28;20369;-68
2023/04/15 10:49:11;;;;;;;8.18;2.55;;;9.60;99.90;;;;;;5064833;28;20067;-66
2023/04/15 10:51:42;;;;;;;8.63;2.78;;;9.60;99.90;;;;;;5064361;28;20032;-67
2023/04/15 10:54:16;;;;;;;8.52;2.78;;;9.50;99.90;;;;;;5047940;28;20032;-67
2023/04/15 10:56:43;;;;;;;8.40;3.15;;;9.50;99.90;;;;;;5064277;28;20137;-67
2023/04/15 10:59:10;;;;;;;12.02;3.38;;;9.30;99.90;;;;;;5047500;28;20055;-67
2023/04/15 11:01:51;;;;;;;12.25;3.45;;;9.30;99.90;;;;;;5047337;28;20061;-66
2023/04/15 11:04:56;;;;;;;7.45;2.78;;;9.40;99.90;;;;;;5049212;28;20052;-70
2023/04/15 11:07:40;;;;;;;9.13;2.80;;;9.40;99.90;;;;;;5047604;28;20075;-68
2023/04/15 11:10:30;;;;;;;8.83;3.03;;;9.40;99.90;;;;;;5047545;28;20052;-68
2023/04/15 11:13:01;;;;;;;13.25;3.40;;;9.40;99.90;;;;;;5054221;28;20310;-70
2023/04/15 11:15:39;;;;;;;9.88;3.67;;;9.40;99.90;;;;;;5080915;28;20258;-69
2023/04/15 11:18:14;;;;;;;56.53;33.53;;;9.40;99.90;;;;;;5048267;28;20114;-69
2023/04/15 11:20:45;;;;;;;11.88;4.30;;;9.40;99.90;;;;;;5063348;28;20072;-66
2023/04/15 11:23:11;;;;;;;13.35;4.00;;;9.40;99.90;;;;;;5088698;28;20093;-70
2023/04/15 11:25:37;;;;;;;9.70;3.08;;;9.50;99.90;;;;;;5048202;28;20115;-67
2023/04/15 11:28:04;;;;;;;10.27;3.30;;;9.50;99.90;;;;;;5084195;28;20118;-68
2023/04/15 11:30:32;;;;;;;9.18;3.13;;;9.50;99.90;;;;;;5079164;28;20431;-66
2023/04/15 11:33:03;;;;;;;11.20;3.05;;;9.50;99.90;;;;;;5083788;28;20390;-68
2023/04/15 11:35:30;;;;;;;14.00;2.50;;;9.60;99.90;;;;;;5080065;28;20082;-68
2023/04/15 11:38:02;;;;;;;12.27;3.00;;;9.80;99.90;;;;;;5066553;28;20043;-71
2023/04/15 11:40:30;;;;;;;8.73;2.90;;;9.80;99.90;;;;;;5082395;28;20047;-69
2023/04/15 11:43:07;;;;;;;17.80;3.15;;;9.80;99.90;;;;;;5083788;28;20474;-72
2023/04/15 11:45:33;;;;;;;11.40;2.42;;;9.80;99.90;;;;;;5079079;28;20047;-72
2023/04/15 11:48:07;;;;;;;11.55;3.40;;;9.70;99.90;;;;;;5083731;28;20044;-71
2023/04/15 11:50:34;;;;;;;;;;;9.80;99.90;;;;;;5073619;28;20041;-68
2023/04/15 11:53:03;;;;;;;7.78;2.50;;;9.80;99.90;;;;;;5064016;28;19973;-68
2023/04/15 11:55:30;;;;;;;9.73;2.75;;;10.00;99.90;;;;;;5065894;28;20097;-70
2023/04/15 11:58:15;;;;;;;11.57;2.75;;;10.20;99.90;;;;;;5065798;28;20040;-70
2023/04/15 12:00:49;;;;;;;10.02;4.07;;;10.40;99.90;;;;;;5081852;28;20089;-66
2023/04/15 12:03:26;;;;;;;12.13;2.67;;;10.40;99.90;;;;;;5066563;28;20048;-66
2023/04/15 12:06:11;;;;;;;10.90;2.70;;;10.50;99.90;;;;;;5064353;28;20040;-70
2023/04/15 12:09:05;;;;;;;11.55;3.78;;;10.50;99.90;;;;;;5079348;28;20040;-69
2023/04/15 12:11:51;;;;;;;8.35;2.58;;;10.50;99.90;;;;;;5082078;28;20048;-67
2023/04/15 12:14:27;;;;;;;13.48;2.53;;;10.30;99.90;;;;;;5065431;28;20515;-70
2023/04/15 12:17:01;;;;;;;9.23;2.35;;;10.10;99.90;;;;;;5065178;28;20518;-66
2023/04/15 12:19:37;;;;;;;;;;;10.20;99.90;;;;;;5066520;28;20094;-69
2023/04/15 12:22:05;;;;;;;10.13;2.58;;;10.10;99.90;;;;;;5062352;28;19921;-68
2023/04/15 12:24:36;;;;;;;10.50;2.40;;;10.10;99.90;;;;;;5086894;28;20058;-69
2023/04/15 12:27:06;;;;;;;13.70;2.65;;;10.10;99.90;;;;;;5087177;28;20043;-69
2023/04/15 12:29:33;;;;;;;13.30;3.05;;;10.10;99.90;;;;;;5070720;28;20057;-66
2023/04/15 12:32:13;;;;;;;12.00;2.88;;;10.10;99.90;;;;;;5062316;28;20472;-68
2023/04/15 12:34:41;;;;;;;12.82;2.30;;;10.00;99.90;;;;;;5056911;28;20043;-67
2023/04/15 12:37:09;;;;;;;11.93;3.45;;;9.90;99.90;;;;;;5074284;28;20045;-68
2023/04/15 12:39:48;;;;;;;11.65;3.15;;;9.70;99.90;;;;;;5070287;28;20044;-68
2023/04/15 12:42:15;;;;;;;11.27;2.58;;;9.60;99.90;;;;;;5051887;28;20045;-68
2023/04/15 12:44:41;;;;;;;12.30;3.05;;;9.60;99.90;;;;;;5084427;28;20040;-66